Time;durP1;ratioP1;P1;durP2;ratioP2;P2;SDS_P1;SDS_P2;PMS_P1;PMS_P2;Temp;Humidity;BMP_temperature;BMP_pressure;BME280_temperature;BME280_humidity;BME280_pressure;Samples;Min_cycle;Max_cycle;Signal;HPM_P1;HPM_P2
2021/07/26 00:02:16;;;;;;;7.10;6.40;;;19.90;99.90;;;;;;6156881;23;20152;-91
2021/07/26 00:04:42;;;;;;;7.07;6.43;;;18.60;99.90;;;;;;6157346;23;20416;-91
2021/07/26 00:07:08;;;;;;;9.97;6.67;;;20.80;99.90;;;;;;6155859;23;20415;-91
2021/07/26 00:09:34;;;;;;;6.53;6.13;;;21.10;99.90;;;;;;6157081;23;20388;-90
2021/07/26 00:12:00;;;;;;;7.70;7.20;;;21.20;99.90;;;;;;6156899;23;20148;-91
2021/07/26 00:14:25;;;;;;;6.83;6.33;;;20.40;99.90;;;;;;6155413;23;20388;-91
2021/07/26 00:16:51;;;;;;;7.23;6.73;;;;;;;;;;6156821;23;20149;-91
2021/07/26 00:19:17;;;;;;;6.50;6.10;;;18.50;99.90;;;;;;6155011;23;20152;-90
2021/07/26 00:21:42;;;;;;;6.23;5.93;;;17.70;99.90;;;;;;6159224;23;20451;-90
2021/07/26 00:24:08;;;;;;;5.20;5.00;;;19.10;99.90;;;;;;6174904;23;20187;-90
2021/07/26 00:26:34;;;;;;;6.00;5.60;;;18.60;99.90;;;;;;6177303;23;20124;-90
2021/07/26 00:28:59;;;;;;;4.90;4.50;;;18.50;99.90;;;;;;6182453;23;20136;-89
2021/07/26 00:31:25;;;;;;;4.83;4.63;;;21.10;99.90;;;;;;6169679;23;20145;-90
2021/07/26 00:34:15;;;;;;;4.40;4.10;;;17.70;96.80;;;;;;6154813;23;20148;-90
2021/07/26 00:36:42;;;;;;;3.70;3.60;;;19.00;95.20;;;;;;6170910;23;20641;-90
2021/07/26 00:39:09;;;;;;;4.57;4.27;;;19.10;93.70;;;;;;6156165;23;21089;-89
2021/07/26 00:41:35;;;;;;;3.73;3.43;;;19.30;94.00;;;;;;6154437;23;20904;-90
2021/07/26 00:44:02;;;;;;;4.00;3.73;;;18.00;91.60;;;;;;6154521;23;20431;-90
2021/07/26 00:46:27;;;;;;;3.60;3.50;;;19.30;91.80;;;;;;6154749;23;20798;-89
2021/07/26 00:48:53;;;;;;;3.40;3.30;;;18.70;90.90;;;;;;6154665;23;20388;-90
2021/07/26 00:51:19;;;;;;;3.83;3.60;;;21.00;91.70;;;;;;6154546;23;20208;-90
2021/07/26 00:53:46;;;;;;;3.30;3.20;;;19.60;89.40;;;;;;6156246;23;20911;-90
2021/07/26 00:56:13;;;;;;;3.60;3.33;;;20.20;88.30;;;;;;6154676;23;20385;-89
2021/07/26 00:58:39;;;;;;;3.93;3.83;;;19.70;86.90;;;;;;6155776;23;20840;-90
2021/07/26 01:01:04;;;;;;;4.10;3.80;;;19.60;87.90;;;;;;6155996;23;20369;-90
2021/07/26 01:03:30;;;;;;;3.47;3.33;;;19.70;86.50;;;;;;6154602;23;20192;-90
2021/07/26 01:05:56;;;;;;;4.10;3.80;;;17.90;83.90;;;;;;6156126;23;20450;-89
2021/07/26 01:08:22;;;;;;;3.43;3.33;;;17.80;83.40;;;;;;6155895;23;20571;-90
2021/07/26 01:10:47;;;;;;;3.47;3.37;;;20.80;88.70;;;;;;6154344;23;20416;-89
2021/07/26 01:13:13;;;;;;;4.00;3.90;;;21.30;90.00;;;;;;6155996;23;20199;-90
2021/07/26 01:15:39;;;;;;;4.40;4.10;;;18.20;88.20;;;;;;6155585;23;20268;-90
2021/07/26 01:18:26;;;;;;;4.87;4.00;;;20.90;90.90;;;;;;6154338;23;20145;-90
2021/07/26 01:21:06;;;;;;;3.97;3.73;;;19.60;88.70;;;;;;6157148;23;20144;-90
2021/07/26 01:23:34;;;;;;;3.93;3.60;;;19.50;90.60;;;;;;6155905;23;20419;-90
2021/07/26 01:26:01;;;;;;;4.70;4.50;;;19.40;90.60;;;;;;6154397;23;20380;-90
2021/07/26 01:28:33;;;;;;;4.10;3.80;;;20.20;92.10;;;;;;6155901;23;20564;-90
2021/07/26 01:30:59;;;;;;;4.60;4.40;;;19.30;91.20;;;;;;6157187;23;20372;-90
2021/07/26 01:33:28;;;;;;;4.03;3.83;;;17.70;90.50;;;;;;6156038;23;20384;-91
2021/07/26 01:35:54;;;;;;;4.23;4.10;;;19.30;90.50;;;;;;6167650;23;20462;-90
2021/07/26 01:38:20;;;;;;;3.60;3.50;;;18.50;90.70;;;;;;6185799;23;20879;-90
2021/07/26 01:40:50;;;;;;;4.33;4.10;;;18.00;90.00;;;;;;6187603;23;20140;-90
2021/07/26 01:43:16;;;;;;;4.67;4.13;;;18.30;90.00;;;;;;6187275;23;20498;-89
2021/07/26 01:45:52;;;;;;;3.87;3.77;;;21.10;92.00;;;;;;6187745;23;20462;-90
2021/07/26 01:48:34;;;;;;;4.50;4.20;;;21.60;92.40;;;;;;6187348;23;20370;-90
2021/07/26 01:51:04;;;;;;;4.13;3.93;;;19.20;91.50;;;;;;6187571;23;20430;-90
2021/07/26 01:53:30;;;;;;;3.33;3.23;;;19.20;91.40;;;;;;6185661;23;20388;-90
2021/07/26 01:55:56;;;;;;;4.33;4.00;;;18.70;90.20;;;;;;6185956;23;20405;-90
2021/07/26 01:58:22;;;;;;;4.60;4.27;;;19.30;90.60;;;;;;6185763;23;20870;-90
2021/07/26 02:00:47;;;;;;;4.23;3.93;;;19.20;91.80;;;;;;6187125;23;20394;-90
2021/07/26 02:03:13;;;;;;;4.20;3.90;;;19.30;92.30;;;;;;6187233;23;20488;-90
2021/07/26 02:05:38;;;;;;;6.80;4.00;;;18.80;92.00;;;;;;6187349;23;20227;-90
2021/07/26 02:08:04;;;;;;;3.60;3.50;;;20.80;93.10;;;;;;6187382;23;20199;-90
2021/07/26 02:10:29;;;;;;;3.70;3.57;;;19.90;92.70;;;;;;6185547;23;20159;-90
2021/07/26 02:12:58;;;;;;;3.87;3.53;;;20.90;93.60;;;;;;6187068;23;20144;-90
2021/07/26 02:15:24;;;;;;;4.17;3.87;;;19.10;92.40;;;;;;6187163;23;20152;-89
2021/07/26 02:17:50;;;;;;;4.13;3.77;;;19.10;92.80;;;;;;6186424;23;20378;-90
2021/07/26 02:20:16;;;;;;;5.00;4.70;;;19.60;93.50;;;;;;6186544;23;20387;-89
2021/07/26 02:22:44;;;;;;;3.70;3.50;;;20.40;94.60;;;;;;6197315;23;20180;-90
2021/07/26 02:25:10;;;;;;;4.37;4.17;;;18.80;93.40;;;;;;6208022;23;20379;-89
2021/07/26 02:27:36;;;;;;;3.87;3.73;;;18.90;94.20;;;;;;6204999;23;20423;-89
2021/07/26 02:30:01;;;;;;;4.57;4.43;;;20.20;95.20;;;;;;6192667;23;20434;-90
2021/07/26 02:32:27;;;;;;;5.07;4.83;;;18.80;95.00;;;;;;6189684;23;20136;-90
2021/07/26 02:34:52;;;;;;;4.37;4.27;;;20.90;95.90;;;;;;6187434;23;20176;-90
2021/07/26 02:37:18;;;;;;;4.37;4.00;;;20.60;96.20;;;;;;6185823;23;20195;-91
2021/07/26 02:39:44;;;;;;;4.63;4.43;;;19.90;95.90;;;;;;6186958;23;20156;-89
2021/07/26 02:42:11;;;;;;;4.70;4.40;;;19.60;96.40;;;;;;6185229;23;20151;-89
2021/07/26 02:44:36;;;;;;;4.93;4.50;;;18.90;96.00;;;;;;6186813;23;20183;-89
2021/07/26 02:47:02;;;;;;;4.73;4.33;;;19.60;97.50;;;;;;6185577;23;20379;-90
2021/07/26 02:49:27;;;;;;;5.57;5.30;;;18.60;96.20;;;;;;6185405;23;20155;-90
2021/07/26 02:51:53;;;;;;;5.00;4.70;;;17.00;95.30;;;;;;6185433;23;20152;-89
2021/07/26 02:54:18;;;;;;;4.93;4.73;;;20.90;98.00;;;;;;6185473;23;20148;-90
2021/07/26 02:56:44;;;;;;;5.60;5.30;;;20.40;97.80;;;;;;6187258;23;20151;-90
2021/07/26 02:59:09;;;;;;;5.70;5.40;;;19.20;97.50;;;;;;6187829;23;20215;-90
2021/07/26 03:01:37;;;;;;;4.53;4.33;;;18.10;96.90;;;;;;6186998;23;20156;-90
2021/07/26 03:04:04;;;;;;;6.03;5.23;;;17.70;96.70;;;;;;6186733;23;20175;-90
2021/07/26 03:06:30;;;;;;;5.70;5.33;;;18.50;97.00;;;;;;6185559;23;20388;-91
2021/07/26 03:08:55;;;;;;;5.13;4.93;;;18.40;96.90;;;;;;6186122;23;20415;-91
2021/07/26 03:11:21;;;;;;;4.97;4.77;;;18.30;97.50;;;;;;6186872;23;20215;-91
2021/07/26 03:13:47;;;;;;;5.20;5.00;;;18.20;97.90;;;;;;6186427;23;20174;-91
2021/07/26 03:16:14;;;;;;;4.90;4.70;;;18.60;98.30;;;;;;6187095;23;20168;-91
2021/07/26 03:18:40;;;;;;;5.83;5.33;;;18.00;98.20;;;;;;6185001;23;20148;-90
2021/07/26 03:21:06;;;;;;;7.63;5.63;;;19.80;99.60;;;;;;6186741;23;20454;-90
2021/07/26 03:23:32;;;;;;;4.73;4.43;;;17.90;98.50;;;;;;6186727;23;20231;-91
2021/07/26 03:25:58;;;;;;;6.73;4.90;;;17.40;97.90;;;;;;6187170;23;20378;-89
2021/07/26 03:28:24;;;;;;;5.13;4.77;;;18.10;98.30;;;;;;6185890;23;20419;-91
2021/07/26 03:30:50;;;;;;;5.60;5.20;;;19.10;99.30;;;;;;6187653;23;20674;-89
2021/07/26 03:33:15;;;;;;;5.47;5.17;;;18.50;98.70;;;;;;6187722;23;20151;-90
2021/07/26 03:35:41;;;;;;;5.80;5.30;;;18.00;98.80;;;;;;6185843;23;20214;-90
2021/07/26 03:38:09;;;;;;;7.87;7.10;;;18.20;98.90;;;;;;6185087;23;20528;-90
2021/07/26 03:40:35;;;;;;;6.23;5.57;;;20.40;99.90;;;;;;6185841;23;20144;-90
2021/07/26 03:43:01;;;;;;;6.33;5.67;;;19.80;99.70;;;;;;6187042;23;20427;-91
2021/07/26 03:45:28;;;;;;;8.30;5.90;;;18.20;99.10;;;;;;6184817;23;20158;-90
2021/07/26 03:47:59;;;;;;;6.13;4.93;;;20.00;99.90;;;;;;6187072;23;20851;-90
2021/07/26 03:50:27;;;;;;;4.70;4.50;;;17.70;99.20;;;;;;6187298;23;20446;-89
2021/07/26 03:52:54;;;;;;;5.37;5.17;;;18.00;99.80;;;;;;6186669;23;20376;-90
2021/07/26 03:55:28;;;;;;;5.43;4.97;;;19.10;99.90;;;;;;6186656;23;20379;-90
2021/07/26 03:57:54;;;;;;;7.07;5.67;;;17.90;99.50;;;;;;6186637;23;20863;-90
2021/07/26 04:00:22;;;;;;;6.47;4.97;;;19.70;99.90;;;;;;6185632;23;20453;-90
2021/07/26 04:03:00;;;;;;;4.70;4.40;;;18.10;99.20;;;;;;6186947;23;20898;-90
2021/07/26 04:05:34;;;;;;;4.40;4.23;;;19.60;99.90;;;;;;6184729;23;20869;-90
2021/07/26 04:08:11;;;;;;;4.80;4.50;;;16.00;98.10;;;;;;6185737;23;20768;-91
2021/07/26 04:10:40;;;;;;;5.10;4.80;;;18.00;99.60;;;;;;6188420;23;20374;-90
2021/07/26 04:13:05;;;;;;;5.70;5.30;;;18.20;99.50;;;;;;6187657;23;20363;-90
2021/07/26 04:15:31;;;;;;;4.57;4.37;;;19.70;99.90;;;;;;6187339;23;20384;-90
2021/07/26 04:17:56;;;;;;;4.40;4.03;;;20.00;99.90;;;;;;6188154;23;20151;-89
2021/07/26 04:20:22;;;;;;;4.83;4.43;;;18.10;99.00;;;;;;6187111;23;20144;-91
2021/07/26 04:22:48;;;;;;;5.13;4.83;;;18.20;99.10;;;;;;6186497;23;20439;-90
2021/07/26 04:25:13;;;;;;;4.80;4.60;;;19.40;99.90;;;;;;6185507;23;20528;-90
2021/07/26 04:27:39;;;;;;;4.10;4.00;;;18.60;99.10;;;;;;6186958;23;20667;-88
2021/07/26 04:30:06;;;;;;;5.47;4.80;;;19.80;99.40;;;;;;6187414;23;20488;-89
2021/07/26 04:32:40;;;;;;;6.90;6.40;;;18.30;98.30;;;;;;6188287;23;20144;-90
2021/07/26 04:35:07;;;;;;;15.80;6.20;;;18.00;97.90;;;;;;6187076;23;20386;-90
2021/07/26 04:37:32;;;;;;;5.90;5.60;;;18.40;98.30;;;;;;6191158;23;20378;-90
2021/07/26 04:39:59;;;;;;;5.40;4.97;;;18.40;98.40;;;;;;6190912;23;20477;-88
2021/07/26 04:42:25;;;;;;;4.80;4.50;;;18.50;97.90;;;;;;6216515;23;20140;-90
2021/07/26 04:44:50;;;;;;;5.47;5.07;;;18.40;97.70;;;;;;6191975;23;20486;-89
2021/07/26 04:47:16;;;;;;;5.60;5.20;;;18.40;98.00;;;;;;6216910;23;20274;-90
2021/07/26 04:49:42;;;;;;;5.60;5.23;;;19.10;98.40;;;;;;6216757;23;20147;-90
2021/07/26 04:52:07;;;;;;;5.10;4.63;;;18.60;97.20;;;;;;6218488;23;20195;-90
2021/07/26 04:54:33;;;;;;;6.20;5.23;;;19.00;96.60;;;;;;6217100;23;20479;-89
2021/07/26 04:56:58;;;;;;;10.23;6.40;;;17.30;94.70;;;;;;6216471;23;20147;-89
2021/07/26 04:59:24;;;;;;;4.07;3.63;;;20.50;95.50;;;;;;6214875;23;20492;-90
2021/07/26 05:01:49;;;;;;;9.07;6.03;;;20.20;93.30;;;;;;6187874;23;20180;-90
2021/07/26 05:04:16;;;;;;;4.10;3.90;;;22.30;92.60;;;;;;6214919;23;20743;-91
2021/07/26 05:06:42;;;;;;;3.50;3.30;;;22.10;91.00;;;;;;6188694;23;20147;-91
2021/07/26 05:09:07;;;;;;;3.50;3.40;;;21.30;88.10;;;;;;6214817;23;20743;-90
2021/07/26 05:11:33;;;;;;;4.63;4.23;;;22.80;88.10;;;;;;6189497;23;20158;-90
2021/07/26 05:13:58;;;;;;;3.53;3.47;;;22.10;85.60;;;;;;6214610;23;20147;-89
2021/07/26 05:16:24;;;;;;;4.17;3.80;;;23.70;85.70;;;;;;6189673;23;20517;-90
2021/07/26 05:18:54;;;;;;;3.20;3.10;;;22.20;79.10;;;;;;6215032;23;20580;-90
2021/07/26 05:21:19;;;;;;;3.60;3.30;;;22.60;75.80;;;;;;6214373;23;20210;-89
2021/07/26 05:23:45;;;;;;;3.20;3.10;;;22.90;74.60;;;;;;6215201;23;20520;-90
2021/07/26 05:26:10;;;;;;;3.03;2.83;;;25.20;73.80;;;;;;6214757;23;20155;-92
2021/07/26 05:28:36;;;;;;;3.80;3.60;;;22.90;69.80;;;;;;6188041;23;20219;-92
2021/07/26 05:31:01;;;;;;;3.27;3.07;;;24.10;71.50;;;;;;6190529;23;20144;-90
2021/07/26 05:33:27;;;;;;;3.83;3.60;;;25.10;69.40;;;;;;6189892;23;20147;-90
2021/07/26 05:35:54;;;;;;;4.83;4.10;;;23.40;68.40;;;;;;6183847;23;20188;-89
2021/07/26 05:38:20;;;;;;;6.20;3.50;;;23.40;65.30;;;;;;6184616;23;20154;-92
2021/07/26 05:40:45;;;;;;;3.47;3.27;;;25.10;64.00;;;;;;6184197;23;20462;-91
2021/07/26 05:43:11;;;;;;;6.13;3.40;;;25.00;60.60;;;;;;6184488;23;20210;-91
2021/07/26 05:45:38;;;;;;;3.17;3.07;;;25.90;61.90;;;;;;6184736;23;20204;-92
2021/07/26 05:48:04;;;;;;;3.50;3.30;;;26.50;60.00;;;;;;6185925;23;20449;-90
2021/07/26 05:50:31;;;;;;;2.77;2.70;;;24.50;58.20;;;;;;6183572;23;20392;-90
2021/07/26 05:52:56;;;;;;;3.50;3.40;;;24.20;58.80;;;;;;6184433;23;20387;-92
2021/07/26 05:55:22;;;;;;;3.97;3.80;;;23.90;58.30;;;;;;6185400;23;20906;-90
2021/07/26 05:57:49;;;;;;;2.80;2.80;;;24.90;61.00;;;;;;6185631;23;20234;-91
2021/07/26 06:00:17;;;;;;;4.37;3.30;;;25.60;58.50;;;;;;6186524;23;20148;-92
2021/07/26 06:02:43;;;;;;;3.67;3.47;;;25.70;59.40;;;;;;6187988;23;20386;-93
2021/07/26 06:05:10;;;;;;;2.70;2.60;;;26.40;58.50;;;;;;6184663;23;20395;-91
2021/07/26 06:07:36;;;;;;;3.57;3.37;;;24.60;56.90;;;;;;6184358;23;20379;-89
2021/07/26 06:10:02;;;;;;;3.20;3.00;;;23.80;56.40;;;;;;6189656;23;20478;-90
2021/07/26 06:12:29;;;;;;;4.23;3.00;;;24.40;57.30;;;;;;6189347;23;20162;-91
2021/07/26 06:14:54;;;;;;;3.63;3.43;;;25.60;59.70;;;;;;6192019;23;20171;-91
2021/07/26 06:17:20;;;;;;;3.10;3.00;;;24.20;58.30;;;;;;6191634;23;20510;-90
2021/07/26 06:19:45;;;;;;;3.43;3.33;;;26.30;60.50;;;;;;6189171;23;20764;-92
2021/07/26 06:22:11;;;;;;;3.50;3.07;;;23.00;56.70;;;;;;6189238;23;20152;-92
2021/07/26 06:24:37;;;;;;;3.33;3.13;;;26.70;58.80;;;;;;6188158;23;20275;-89
2021/07/26 06:27:02;;;;;;;3.37;3.10;;;25.40;58.90;;;;;;6194049;23;20144;-90
2021/07/26 06:29:28;;;;;;;2.93;2.93;;;26.20;57.90;;;;;;6192607;23;20168;-90
2021/07/26 06:31:57;;;;;;;3.40;3.27;;;26.10;57.00;;;;;;6192537;23;20144;-92
2021/07/26 06:34:25;;;;;;;3.63;3.33;;;26.60;56.50;;;;;;6192676;23;20144;-91
2021/07/26 06:36:51;;;;;;;3.73;3.50;;;25.80;55.40;;;;;;6192461;23;20426;-89
2021/07/26 06:39:17;;;;;;;3.10;3.10;;;27.50;54.00;;;;;;6190034;23;20387;-91
2021/07/26 06:41:45;;;;;;;5.33;3.63;;;27.50;53.40;;;;;;6191190;23;20241;-91
2021/07/26 06:44:11;;;;;;;3.07;2.87;;;27.80;52.00;;;;;;6202330;23;20245;-90
2021/07/26 06:46:40;;;;;;;3.53;3.27;;;27.90;52.50;;;;;;6200013;23;20375;-92
2021/07/26 06:49:06;;;;;;;3.43;3.23;;;27.60;51.20;;;;;;6180714;23;20163;-90
2021/07/26 06:51:31;;;;;;;3.00;3.00;;;27.80;53.50;;;;;;6206786;23;20367;-91
2021/07/26 06:54:03;;;;;;;3.27;3.20;;;29.90;53.50;;;;;;6198067;23;20292;-91
2021/07/26 06:56:29;;;;;;;4.17;3.37;;;27.60;49.50;;;;;;6199159;23;20145;-91
2021/07/26 06:58:55;;;;;;;4.00;3.60;;;27.50;52.70;;;;;;6197017;23;20451;-92
2021/07/26 07:01:20;;;;;;;4.33;3.63;;;27.40;53.90;;;;;;6191306;23;20158;-94
2021/07/26 07:03:46;;;;;;;3.50;3.30;;;27.10;52.60;;;;;;6192534;23;20180;-91
2021/07/26 07:06:14;;;;;;;3.07;2.87;;;27.70;51.60;;;;;;6192109;23;20576;-91
2021/07/26 07:08:40;;;;;;;3.10;2.87;;;27.50;50.40;;;;;;6191984;23;20387;-92
2021/07/26 07:11:07;;;;;;;3.10;3.03;;;28.20;50.80;;;;;;6190165;23;20693;-89
2021/07/26 07:13:34;;;;;;;2.90;2.90;;;28.70;50.50;;;;;;6188228;23;20851;-90
2021/07/26 07:16:00;;;;;;;3.23;3.10;;;29.10;48.70;;;;;;6190189;23;20367;-92
2021/07/26 07:18:26;;;;;;;3.23;3.13;;;29.70;47.90;;;;;;6188696;23;20481;-92
2021/07/26 07:20:52;;;;;;;3.63;3.33;;;30.10;48.50;;;;;;6192814;23;20371;-91
2021/07/26 07:23:17;;;;;;;3.40;3.27;;;30.30;49.30;;;;;;6188379;23;20509;-93
2021/07/26 07:25:44;;;;;;;3.83;3.50;;;29.10;48.70;;;;;;6185519;23;20163;-93
2021/07/26 07:28:10;;;;;;;3.57;3.37;;;31.00;48.90;;;;;;6187671;23;20155;-90
2021/07/26 07:30:35;;;;;;;7.17;3.20;;;30.80;46.50;;;;;;6187357;23;20458;-94
2021/07/26 07:33:01;;;;;;;3.90;3.33;;;31.60;46.00;;;;;;6185889;23;20150;-92
2021/07/26 07:35:28;;;;;;;3.00;2.90;;;30.20;46.00;;;;;;6185632;23;20192;-93
2021/07/26 07:37:53;;;;;;;3.40;3.20;;;29.80;47.00;;;;;;6187001;23;20152;-93
2021/07/26 07:40:20;;;;;;;3.10;3.07;;;29.80;46.90;;;;;;6181406;23;20430;-91
2021/07/26 07:42:45;;;;;;;2.80;2.80;;;29.00;48.10;;;;;;6188184;23;20164;-91
2021/07/26 07:45:11;;;;;;;3.47;3.30;;;31.40;47.60;;;;;;6190286;23;20482;-90
2021/07/26 07:47:39;;;;;;;5.03;3.63;;;29.60;46.00;;;;;;6187301;23;20167;-87
2021/07/26 07:50:05;;;;;;;3.93;3.83;;;28.70;45.80;;;;;;6188834;23;20396;-93
2021/07/26 07:52:31;;;;;;;3.87;3.50;;;28.60;46.50;;;;;;6195026;23;20383;-94
2021/07/26 07:54:57;;;;;;;3.07;2.90;;;28.30;47.30;;;;;;6198032;23;20481;-90
2021/07/26 07:57:25;;;;;;;3.83;3.73;;;28.00;47.00;;;;;;6196469;23;20207;-89
2021/07/26 07:59:55;;;;;;;2.87;2.77;;;27.20;48.00;;;;;;6220353;23;21010;-94
2021/07/26 08:02:21;;;;;;;3.43;3.33;;;27.30;49.20;;;;;;6189936;23;20395;-93
2021/07/26 08:04:50;;;;;;;3.40;3.40;;;26.20;49.50;;;;;;6174228;23;20429;-92
2021/07/26 08:07:16;;;;;;;4.33;4.03;;;26.80;52.00;;;;;;6195459;23;20391;-90
2021/07/26 08:09:45;;;;;;;3.80;3.60;;;27.90;50.90;;;;;;6196084;23;20402;-94
2021/07/26 08:12:15;;;;;;;3.70;3.60;;;27.80;50.90;;;;;;6197416;23;20391;-90
2021/07/26 08:14:42;;;;;;;4.10;3.80;;;26.60;52.80;;;;;;6201101;23;20383;-92
2021/07/26 08:17:15;;;;;;;4.63;2.83;;;27.50;51.60;;;;;;6198451;23;20394;-91
2021/07/26 08:19:53;;;;;;;2.80;2.80;;;25.40;50.20;;;;;;6198543;23;20371;-92
2021/07/26 08:22:19;;;;;;;3.07;3.00;;;26.60;53.70;;;;;;6196865;23;20397;-89
2021/07/26 08:24:45;;;;;;;2.30;2.30;;;25.30;50.80;;;;;;6199161;23;20497;-92
2021/07/26 08:27:11;;;;;;;2.67;2.57;;;26.40;51.80;;;;;;6199653;23;20476;-91
2021/07/26 08:29:37;;;;;;;2.63;2.53;;;28.30;50.40;;;;;;6198714;23;20152;-87
2021/07/26 08:32:03;;;;;;;3.80;3.53;;;28.30;48.50;;;;;;6199321;23;20395;-92
2021/07/26 08:34:39;;;;;;;3.43;3.33;;;28.60;48.90;;;;;;6196839;23;20598;-91
2021/07/26 08:37:31;;;;;;;3.43;3.30;;;28.20;49.40;;;;;;6231004;23;20429;-91
2021/07/26 08:40:03;;;;;;;3.20;3.03;;;29.60;49.50;;;;;;6209049;23;20382;-90
2021/07/26 08:42:34;;;;;;;3.63;3.37;;;31.20;47.60;;;;;;6206562;23;20465;-91
2021/07/26 08:45:08;;;;;;;3.40;3.30;;;30.50;45.50;;;;;;6205685;23;20410;-90
2021/07/26 08:47:37;;;;;;;3.30;3.10;;;29.80;45.80;;;;;;6218811;23;20428;-92
2021/07/26 08:50:08;;;;;;;2.80;2.80;;;28.90;43.80;;;;;;6204664;23;20382;-93
2021/07/26 08:52:40;;;;;;;3.20;3.10;;;32.70;44.00;;;;;;6204632;23;20382;-92
2021/07/26 08:55:09;;;;;;;3.10;3.00;;;;;;;;;;6181954;23;20417;-89
2021/07/26 08:57:36;;;;;;;3.80;3.57;;;30.70;42.30;;;;;;6206794;23;20403;-93
2021/07/26 09:00:02;;;;;;;3.50;3.23;;;30.70;43.50;;;;;;6204193;23;20456;-89
2021/07/26 09:02:29;;;;;;;3.40;3.10;;;31.80;44.40;;;;;;6206405;23;20379;-90
2021/07/26 09:04:55;;;;;;;4.00;3.80;;;31.80;43.90;;;;;;6211234;23;20438;-91
2021/07/26 09:07:27;;;;;;;3.73;3.73;;;31.40;45.40;;;;;;6206169;23;20382;-96
2021/07/26 09:10:11;;;;;;;4.90;4.80;;;29.70;43.30;;;;;;6230583;23;20375;-94
2021/07/26 09:12:37;;;;;;;4.43;4.10;;;29.60;43.80;;;;;;6200426;23;20378;-91
2021/07/26 09:15:07;;;;;;;4.33;4.23;;;30.40;47.40;;;;;;6205422;23;20461;-91
2021/07/26 09:17:46;;;;;;;4.00;3.90;;;29.60;44.20;;;;;;6206027;23;20481;-90
2021/07/26 09:20:29;;;;;;;4.93;4.73;;;31.10;43.80;;;;;;6236884;23;20367;-93
2021/07/26 09:22:58;;;;;;;4.27;4.17;;;32.30;43.20;;;;;;6183681;23;20417;-91
2021/07/26 09:25:29;;;;;;;4.27;4.17;;;31.70;45.50;;;;;;6207495;23;20399;-91
2021/07/26 09:28:20;;;;;;;3.90;3.90;;;32.30;40.20;;;;;;6201502;23;20434;-91
2021/07/26 09:31:04;;;;;;;4.07;3.93;;;32.40;40.50;;;;;;6230309;23;20391;-91
2021/07/26 09:33:31;;;;;;;4.90;4.70;;;33.50;39.50;;;;;;6203834;23;20406;-89
2021/07/26 09:36:06;;;;;;;3.67;3.67;;;33.20;40.80;;;;;;6227470;23;20446;-90
2021/07/26 09:38:32;;;;;;;6.93;6.73;;;32.00;42.20;;;;;;6205371;23;20382;-89
2021/07/26 09:44:04;;;;;;;4.20;4.10;;;32.60;43.90;;;;;;6228629;23;20448;-92
2021/07/26 09:46:31;;;;;;;4.50;4.40;;;31.60;43.00;;;;;;6228725;23;20361;-91
2021/07/26 09:49:16;;;;;;;3.73;3.73;;;30.40;43.50;;;;;;6228405;23;20375;-92
2021/07/26 09:52:03;;;;;;;5.20;5.00;;;29.90;42.20;;;;;;6230856;23;20374;-94
2021/07/26 09:55:02;;;;;;;4.27;4.17;;;30.70;42.10;;;;;;6212813;23;20363;-94
2021/07/26 09:57:28;;;;;;;5.00;4.80;;;31.60;44.00;;;;;;6202437;23;20445;-94
2021/07/26 10:00:14;;;;;;;5.00;4.17;;;31.20;43.30;;;;;;6234946;23;20401;-93
2021/07/26 10:02:40;;;;;;;4.30;4.10;;;30.70;45.00;;;;;;6206078;23;20397;-92
2021/07/26 10:05:07;;;;;;;4.70;4.50;;;30.70;43.90;;;;;;6234074;23;20382;-93
2021/07/26 10:07:38;;;;;;;4.50;4.30;;;30.50;41.70;;;;;;6205568;23;20405;-92
2021/07/26 10:10:08;;;;;;;4.00;3.90;;;30.50;41.20;;;;;;6205686;23;20405;-94
2021/07/26 10:12:33;;;;;;;3.80;3.80;;;30.40;42.10;;;;;;6208989;23;20443;-94
2021/07/26 11:50:57;;;;;;;3.27;3.17;;;27.20;45.60;;;;;;5090951;27;20560;-89
2021/07/26 11:53:27;;;;;;;3.30;3.10;;;28.40;47.10;;;;;;5092131;28;20529;-91
2021/07/26 11:55:53;;;;;;;3.00;2.77;;;28.20;46.50;;;;;;5090970;28;20209;-90
2021/07/26 11:58:26;;;;;;;2.87;2.77;;;27.90;45.60;;;;;;5092930;28;20412;-90
2021/07/26 12:00:53;;;;;;;3.00;3.00;;;27.50;45.00;;;;;;5092609;28;20178;-90
2021/07/26 12:03:21;;;;;;;3.10;3.10;;;27.70;45.40;;;;;;5093343;28;20467;-90
2021/07/26 12:05:47;;;;;;;3.23;2.97;;;28.40;45.40;;;;;;5090178;28;20413;-90
2021/07/26 12:08:16;;;;;;;3.20;3.10;;;30.00;46.20;;;;;;5091449;28;20424;-89
2021/07/26 12:10:43;;;;;;;2.90;2.80;;;28.00;44.70;;;;;;5091443;28;20428;-89
2021/07/26 12:13:14;;;;;;;2.90;2.80;;;30.00;43.70;;;;;;5091483;28;20415;-91
2021/07/26 12:15:41;;;;;;;3.10;2.97;;;29.90;42.70;;;;;;5092938;28;20412;-89
2021/07/26 12:18:17;;;;;;;4.30;3.87;;;31.70;40.60;;;;;;5094614;28;20404;-90
2021/07/26 12:20:52;;;;;;;3.40;2.70;;;32.60;39.40;;;;;;5093560;28;20586;-92
2021/07/26 12:23:41;;;;;;;2.33;2.33;;;33.60;41.50;;;;;;4761813;27;10000416;-93
2021/07/26 12:26:11;;;;;;;2.60;2.60;;;33.80;38.00;;;;;;5128520;28;20201;-92
2021/07/26 12:28:49;;;;;;;4.47;2.60;;;33.40;40.10;;;;;;5280667;22;20429;-90
2021/07/26 12:31:35;;;;;;;3.37;3.23;;;34.20;41.10;;;;;;5026968;28;20962;-92
2021/07/26 12:34:37;;;;;;;2.73;2.73;;;32.20;38.10;;;;;;5025669;28;20417;-94
2021/07/26 12:37:09;;;;;;;3.33;3.23;;;33.90;36.70;;;;;;4989056;28;20947;-92
2021/07/26 12:39:39;;;;;;;3.17;3.07;;;34.70;36.20;;;;;;5004032;28;20476;-92
2021/07/26 12:42:28;;;;;;;3.20;3.20;;;32.80;36.10;;;;;;5012631;28;20432;-94
2021/07/26 12:44:54;;;;;;;3.10;3.10;;;35.20;35.50;;;;;;5008316;28;20433;-93
2021/07/26 12:47:33;;;;;;;3.00;3.00;;;34.60;37.20;;;;;;5014322;28;20452;-90
2021/07/26 12:50:00;;;;;;;3.40;3.10;;;33.60;37.80;;;;;;5003206;28;20177;-91
2021/07/26 12:52:27;;;;;;;3.33;3.33;;;32.30;39.40;;;;;;5017747;28;20451;-95
2021/07/26 12:54:56;;;;;;;3.20;3.20;;;31.90;37.80;;;;;;4998538;28;20425;-93
2021/07/26 12:57:26;;;;;;;3.30;3.27;;;31.50;40.60;;;;;;5012618;28;20429;-94
2021/07/26 13:00:02;;;;;;;4.00;3.90;;;30.50;38.80;;;;;;4999591;28;20519;-91
2021/07/26 13:02:29;;;;;;;4.30;4.00;;;29.80;41.30;;;;;;4987681;28;20445;-93
2021/07/26 13:04:56;;;;;;;4.07;3.77;;;29.20;42.60;;;;;;4990533;28;20422;-92
2021/07/26 13:07:21;;;;;;;4.47;4.13;;;30.20;42.50;;;;;;4987295;28;20424;-91
2021/07/26 13:09:47;;;;;;;2.80;2.80;;;27.70;41.70;;;;;;5005278;28;20429;-89
2021/07/26 13:12:14;;;;;;;4.20;3.83;;;29.30;41.70;;;;;;4991387;28;20198;-92
2021/07/26 13:14:40;;;;;;;3.20;3.20;;;28.00;44.10;;;;;;4993742;28;20223;-90
2021/07/26 13:17:06;;;;;;;4.27;4.10;;;27.90;46.40;;;;;;5006217;28;21099;-88
2021/07/26 13:19:32;;;;;;;3.17;3.17;;;28.90;43.70;;;;;;4989073;28;20202;-91
2021/07/26 13:21:57;;;;;;;3.07;3.07;;;29.20;45.40;;;;;;5002654;28;20425;-91
2021/07/26 13:24:23;;;;;;;7.53;4.20;;;27.90;44.00;;;;;;4986357;28;20436;-91
2021/07/26 13:26:49;;;;;;;4.03;3.73;;;30.50;41.70;;;;;;5000993;28;20418;-91
2021/07/26 13:29:14;;;;;;;4.93;3.43;;;31.00;41.60;;;;;;4992957;28;20231;-90
2021/07/26 13:33:27;;;;;;;3.53;3.43;;;30.80;39.80;;;;;;5125354;27;20693;-92
2021/07/26 13:35:52;;;;;;;3.47;3.37;;;32.50;42.50;;;;;;5082865;28;20431;-93
2021/07/26 13:38:18;;;;;;;4.63;3.57;;;29.80;41.50;;;;;;5082946;28;20470;-92
2021/07/26 13:40:51;;;;;;;4.13;3.10;;;31.00;42.00;;;;;;5066010;28;20168;-93
2021/07/26 13:43:16;;;;;;;3.97;3.97;;;29.60;43.10;;;;;;5071669;28;20198;-92
2021/07/26 13:45:42;;;;;;;3.53;3.40;;;31.40;43.00;;;;;;5082445;28;20401;-90
2021/07/26 13:48:20;;;;;;;3.53;3.00;;;30.30;44.80;;;;;;5081439;28;20178;-92
2021/07/26 13:50:46;;;;;;;3.10;3.10;;;30.30;46.20;;;;;;5076276;28;20175;-89
2021/07/26 13:53:12;;;;;;;3.50;3.40;;;28.60;43.80;;;;;;5076693;28;20421;-90
2021/07/26 13:55:38;;;;;;;4.00;3.60;;;;;;;;;;5077353;28;20480;-91
2021/07/26 13:58:03;;;;;;;4.83;4.43;;;28.70;42.00;;;;;;5074822;28;20564;-91
2021/07/26 14:00:30;;;;;;;3.13;3.13;;;28.70;43.00;;;;;;5075854;28;20488;-90
2021/07/26 14:02:56;;;;;;;5.17;3.93;;;28.60;42.40;;;;;;5076781;28;20165;-92
2021/07/26 14:05:22;;;;;;;3.53;3.43;;;28.90;44.20;;;;;;5076878;28;20448;-91
2021/07/26 14:07:47;;;;;;;3.17;3.17;;;27.70;45.90;;;;;;5075361;28;20205;-91
2021/07/26 14:10:13;;;;;;;4.27;4.17;;;29.20;46.60;;;;;;5073762;28;20214;-90
2021/07/26 14:12:39;;;;;;;4.03;3.70;;;26.90;49.40;;;;;;5074577;28;20206;-92
2021/07/26 14:15:05;;;;;;;4.90;4.70;;;26.00;50.80;;;;;;5074402;28;20638;-88
2021/07/26 14:17:36;;;;;;;6.30;4.80;;;25.20;50.50;;;;;;5076820;28;20182;-94
2021/07/26 14:20:05;;;;;;;4.80;4.50;;;25.20;52.30;;;;;;5074906;28;20425;-92
2021/07/26 14:22:33;;;;;;;5.27;4.90;;;25.70;53.80;;;;;;5077335;28;20429;-94
2021/07/26 14:24:59;;;;;;;4.57;4.37;;;28.30;54.30;;;;;;5076153;28;20417;-91
2021/07/26 14:27:25;;;;;;;4.20;4.10;;;;;;;;;;5074941;28;20428;-94
2021/07/26 14:29:53;;;;;;;4.27;4.17;;;26.10;52.60;;;;;;5076822;28;20163;-89
2021/07/26 14:32:19;;;;;;;4.30;4.10;;;26.30;51.50;;;;;;5074930;28;20503;-90
2021/07/26 14:34:44;;;;;;;3.77;3.77;;;26.60;57.10;;;;;;5074826;28;20413;-93